Terminal Aerodrome Forecast
Issued by NWS St Louis, MO

Home | Current Version | Previous Version | Graphics & Text | Print | Product List | Glossary On
Versions: 1 2 3 4 5 6 7 8 9 10 11 12 13 14 15 16 17 18 19 20 21 22 23 24 25 26 27 28 29 30
122
FTUS43 KLSX 200315 AAA
TAFSTL
TAF AMD
KSTL 200315Z 2003/2106 14008KT P6SM SCT250
     FM200900 14006KT 4SM BR SCT010
     FM201500 14009KT P6SM SCT020 BKN100
     FM201800 16014G20KT P6SM BKN120
     FM210000 17012KT 6SM -SHRA OVC050=

USA.gov is the U.S. government's official web portal to all federal, state and local government web resources and services.